createdAt,value
2023-03-06T00:01:48.944Z,3.38
2023-03-06T00:04:16.333Z,4.50
2023-03-06T00:06:43.521Z,4.10
2023-03-06T00:09:10.656Z,2.83
2023-03-06T00:11:38.204Z,3.25
2023-03-06T00:14:05.460Z,2.90
2023-03-06T00:16:32.621Z,3.28
2023-03-06T00:18:59.790Z,3.08
2023-03-06T00:21:27.117Z,3.33
2023-03-06T00:23:57.343Z,3.47
2023-03-06T00:26:24.475Z,3.95
2023-03-06T00:28:51.597Z,3.47
2023-03-06T00:31:18.741Z,4.07
2023-03-06T00:33:46.030Z,4.00
2023-03-06T00:36:13.415Z,5.25
2023-03-06T00:38:40.541Z,5.00
2023-03-06T00:41:08.624Z,5.28
2023-03-06T00:43:35.823Z,5.75
2023-03-06T00:46:03.723Z,6.05
2023-03-06T00:48:31.040Z,7.03
2023-03-06T00:50:58.190Z,6.43
2023-03-06T00:53:25.415Z,6.85
2023-03-06T00:55:52.813Z,6.53
2023-03-06T00:58:19.940Z,6.53
2023-03-06T01:00:47.153Z,6.88
2023-03-06T01:03:14.308Z,6.78
2023-03-06T01:05:41.518Z,7.00
2023-03-06T01:08:08.922Z,6.25
2023-03-06T01:10:38.740Z,7.30
2023-03-06T01:13:05.924Z,6.72
2023-03-06T01:15:33.122Z,7.07
2023-03-06T01:18:00.252Z,7.13
2023-03-06T01:20:27.428Z,7.72
2023-03-06T01:22:56.504Z,7.13
2023-03-06T01:25:24.955Z,6.75
2023-03-06T01:27:52.997Z,6.85
2023-03-06T01:30:20.419Z,6.97
2023-03-06T01:32:48.193Z,6.85
2023-03-06T01:35:15.388Z,7.38
2023-03-06T01:37:42.765Z,7.15
2023-03-06T01:40:10.761Z,7.93
2023-03-06T01:42:37.920Z,7.40
2023-03-06T01:45:09.865Z,7.82
2023-03-06T01:47:37.007Z,8.10
2023-03-06T01:50:05.050Z,8.65
2023-03-06T01:52:34.076Z,9.45
2023-03-06T01:55:20.904Z,9.15
2023-03-06T01:57:52.868Z,9.25
2023-03-06T02:00:22.423Z,8.38
2023-03-06T02:02:53.492Z,9.40
2023-03-06T02:05:20.853Z,9.10
2023-03-06T02:07:48.595Z,9.60
2023-03-06T02:10:16.390Z,9.45
2023-03-06T02:12:43.982Z,9.27
2023-03-06T02:15:15.781Z,9.75
2023-03-06T02:17:44.710Z,10.15
2023-03-06T02:20:24.687Z,9.90
2023-03-06T02:22:58.032Z,9.73
2023-03-06T02:25:33.334Z,9.68
2023-03-06T02:28:00.935Z,10.10
2023-03-06T02:30:29.530Z,10.45
2023-03-06T02:32:56.912Z,10.50
2023-03-06T02:35:25.449Z,9.80
2023-03-06T02:37:53.327Z,9.88
2023-03-06T02:40:22.954Z,9.73
2023-03-06T02:42:51.486Z,9.57
2023-03-06T02:45:22.834Z,8.65
2023-03-06T02:47:49.927Z,9.50
2023-03-06T02:50:17.156Z,9.02
2023-03-06T02:52:44.247Z,9.85
2023-03-06T02:55:11.665Z,8.93
2023-03-06T02:57:39.205Z,9.05
2023-03-06T03:00:06.635Z,8.93
2023-03-06T03:02:33.734Z,9.50
2023-03-06T03:05:00.842Z,8.80
2023-03-06T03:07:27.921Z,8.13
2023-03-06T03:09:55.306Z,8.93
2023-03-06T03:12:22.479Z,9.02
2023-03-06T03:14:49.833Z,8.80
2023-03-06T03:17:17.055Z,8.57
2023-03-06T03:19:44.247Z,8.35
2023-03-06T03:22:11.541Z,7.72
2023-03-06T03:24:39.936Z,8.52
2023-03-06T03:27:07.198Z,7.50
2023-03-06T03:29:34.446Z,8.18
2023-03-06T03:32:01.650Z,8.35
2023-03-06T03:34:29.087Z,8.43
2023-03-06T03:36:56.283Z,7.68
2023-03-06T03:39:23.591Z,8.18
2023-03-06T03:41:50.951Z,7.70
2023-03-06T03:44:18.089Z,8.63
2023-03-06T03:46:45.336Z,7.82
2023-03-06T03:49:12.513Z,8.15
2023-03-06T03:51:39.722Z,8.70
2023-03-06T03:54:06.937Z,8.75
2023-03-06T03:56:34.164Z,8.13
2023-03-06T03:59:01.385Z,8.75
2023-03-06T04:01:28.806Z,8.88
2023-03-06T04:03:55.952Z,9.35
2023-03-06T04:06:23.159Z,8.73
2023-03-06T04:08:50.254Z,8.82
2023-03-06T04:11:17.570Z,9.15
2023-03-06T04:13:44.700Z,8.90
2023-03-06T04:16:12.001Z,8.25
2023-03-06T04:18:39.168Z,9.73
2023-03-06T04:21:06.533Z,8.93
2023-03-06T04:23:33.647Z,8.93
2023-03-06T04:26:00.771Z,8.35
2023-03-06T04:28:27.940Z,8.68
2023-03-06T04:30:55.111Z,9.10
2023-03-06T04:33:22.427Z,8.90
2023-03-06T04:35:50.519Z,9.00
2023-03-06T04:38:17.861Z,8.98
2023-03-06T04:40:45.185Z,9.27
2023-03-06T04:43:12.944Z,8.88
2023-03-06T04:45:40.394Z,8.63
2023-03-06T04:48:07.969Z,9.15
2023-03-06T04:50:35.532Z,8.23
2023-03-06T04:53:04.684Z,8.43
2023-03-06T04:55:32.001Z,7.30
2023-03-06T04:57:59.367Z,6.00
2023-03-06T05:00:31.599Z,6.38
2023-03-06T05:03:02.743Z,5.80
2023-03-06T05:05:30.057Z,5.20
2023-03-06T05:07:57.182Z,5.30
2023-03-06T05:10:24.895Z,3.72
2023-03-06T05:12:52.106Z,4.93
2023-03-06T05:15:19.272Z,4.20
2023-03-06T05:17:47.652Z,4.18
2023-03-06T05:20:15.548Z,4.15
2023-03-06T05:22:42.848Z,3.63
2023-03-06T05:25:11.126Z,4.28
2023-03-06T05:27:38.494Z,3.63
2023-03-06T05:30:06.045Z,4.10
2023-03-06T05:32:35.538Z,4.03
2023-03-06T05:35:03.069Z,4.30
2023-03-06T05:37:30.726Z,3.97
2023-03-06T05:39:59.346Z,4.50
2023-03-06T05:42:28.635Z,4.65
2023-03-06T05:44:55.919Z,4.40
2023-03-06T05:47:23.086Z,4.97
2023-03-06T05:49:50.367Z,4.65
2023-03-06T05:52:17.578Z,5.95
2023-03-06T05:54:44.773Z,5.68
2023-03-06T05:57:12.024Z,5.50
2023-03-06T05:59:39.146Z,5.53
2023-03-06T06:02:06.501Z,5.55
2023-03-06T06:04:33.685Z,5.25
2023-03-06T06:07:01.336Z,5.18
2023-03-06T06:09:29.257Z,6.07
2023-03-06T06:11:58.415Z,6.20
2023-03-06T06:14:25.807Z,5.07
2023-03-06T06:16:53.228Z,5.78
2023-03-06T06:19:20.820Z,5.47
2023-03-06T06:21:48.897Z,5.10
2023-03-06T06:24:16.934Z,5.38
2023-03-06T06:26:44.260Z,5.00
2023-03-06T06:29:11.704Z,6.05
2023-03-06T06:31:38.884Z,5.47
2023-03-06T06:34:06.566Z,5.60
2023-03-06T06:36:33.838Z,5.53
2023-03-06T06:39:00.952Z,5.32
2023-03-06T06:41:50.711Z,5.05
2023-03-06T06:49:32.721Z,5.30
2023-03-06T06:52:02.763Z,6.35
2023-03-06T06:54:29.918Z,5.82
2023-03-06T06:56:57.036Z,4.57
2023-03-06T06:59:24.217Z,2.80
2023-03-06T07:01:52.117Z,2.50
2023-03-06T07:04:19.806Z,1.13
2023-03-06T07:06:47.190Z,2.13
2023-03-06T07:09:14.849Z,2.50
2023-03-06T07:11:42.233Z,3.08
2023-03-06T07:14:09.497Z,2.53
2023-03-06T07:16:36.781Z,2.30
2023-03-06T07:19:04.286Z,2.58
2023-03-06T07:21:31.690Z,1.75
2023-03-06T07:23:58.931Z,2.40
2023-03-06T07:26:26.230Z,2.40
2023-03-06T07:28:54.034Z,3.05
2023-03-06T07:31:22.413Z,2.17
2023-03-06T07:33:50.045Z,1.92
2023-03-06T07:36:17.582Z,2.67
2023-03-06T07:38:44.740Z,3.28
2023-03-06T07:41:13.860Z,2.30
2023-03-06T07:46:12.808Z,1.10
2023-03-06T07:48:40.353Z,1.50
2023-03-06T07:51:09.607Z,1.50
2023-03-06T07:53:36.962Z,1.23
2023-03-06T07:56:08.786Z,1.20
2023-03-06T07:58:36.539Z,1.00
2023-03-06T08:01:04.867Z,1.27
2023-03-06T08:03:32.466Z,1.20
2023-03-06T08:06:06.627Z,0.80
2023-03-06T08:08:35.058Z,1.08
2023-03-06T08:11:02.338Z,1.10
2023-03-06T08:13:29.464Z,1.20
2023-03-06T08:15:56.859Z,1.10
2023-03-06T08:18:24.104Z,1.20
2023-03-06T08:20:51.211Z,1.00
2023-03-06T08:23:18.334Z,1.15
2023-03-06T08:25:45.433Z,2.45
2023-03-06T08:28:12.685Z,1.13
2023-03-06T08:30:39.913Z,1.30
2023-03-06T08:33:07.109Z,1.10
2023-03-06T08:35:34.281Z,1.00
2023-03-06T08:38:01.397Z,1.00
2023-03-06T08:40:30.532Z,0.77
2023-03-06T08:42:57.636Z,1.25
2023-03-06T08:45:24.775Z,1.02
2023-03-06T08:47:51.937Z,0.82
2023-03-06T08:50:21.515Z,0.90
2023-03-06T08:52:48.897Z,0.80
2023-03-06T08:55:16.093Z,1.02
2023-03-06T08:57:43.230Z,0.98
2023-03-06T09:00:14.025Z,0.73
2023-03-06T09:02:41.424Z,0.70
2023-03-06T09:05:09.766Z,0.70
2023-03-06T09:07:36.947Z,0.65
2023-03-06T09:10:04.497Z,0.80
2023-03-06T09:12:40.341Z,0.80
2023-03-06T09:15:15.181Z,0.82
2023-03-06T09:17:42.400Z,0.93
2023-03-06T09:20:10.639Z,0.60
2023-03-06T09:22:37.911Z,0.85
2023-03-06T09:25:06.110Z,0.90
2023-03-06T09:27:35.249Z,0.68
2023-03-06T09:30:04.106Z,0.63
2023-03-06T09:32:31.242Z,0.50
2023-03-06T09:34:58.403Z,0.70
2023-03-06T09:37:25.570Z,0.45
2023-03-06T09:39:53.181Z,0.40
2023-03-06T09:42:23.660Z,0.45
2023-03-06T09:44:58.362Z,0.50
2023-03-06T09:47:44.544Z,0.25
2023-03-06T09:50:38.608Z,0.20
2023-03-06T09:53:12.250Z,0.32
2023-03-06T09:55:40.973Z,0.40
2023-03-06T09:58:17.137Z,0.40
2023-03-06T10:00:51.974Z,0.40
2023-03-06T10:03:24.324Z,0.40
2023-03-06T10:05:55.288Z,0.30
2023-03-06T10:08:31.145Z,0.35
2023-03-06T10:11:03.970Z,0.40
2023-03-06T10:13:37.093Z,0.38
2023-03-06T10:16:08.061Z,0.40
2023-03-06T10:18:38.407Z,0.30
2023-03-06T10:21:19.288Z,0.38
2023-03-06T10:26:20.398Z,0.40
2023-03-06T10:29:15.624Z,0.40
2023-03-06T10:31:49.572Z,0.22
2023-03-06T10:34:24.589Z,0.30
2023-03-06T10:36:52.046Z,0.40
2023-03-06T10:39:23.020Z,0.70
2023-03-06T10:41:50.648Z,0.20
2023-03-06T10:44:19.583Z,0.50
2023-03-06T10:54:14.113Z,0.70
2023-03-06T10:56:42.452Z,1.23
2023-03-06T10:59:13.193Z,0.90
2023-03-06T11:01:42.075Z,0.60
2023-03-06T11:06:36.528Z,0.90
2023-03-06T11:09:23.632Z,0.60
2023-03-06T11:11:51.307Z,1.30
2023-03-06T11:14:20.819Z,0.77
2023-03-06T11:16:53.328Z,0.68
2023-03-06T11:19:20.529Z,1.10
2023-03-06T11:22:00.340Z,0.70
2023-03-06T11:24:28.238Z,1.50
2023-03-06T11:26:58.696Z,0.90
2023-03-06T11:29:29.622Z,0.65
2023-03-06T11:32:09.059Z,1.30
2023-03-06T11:34:54.020Z,0.77
2023-03-06T11:37:24.008Z,1.17
2023-03-06T11:40:09.801Z,1.88
2023-03-06T11:42:41.556Z,0.80
2023-03-06T11:45:27.632Z,0.90
2023-03-06T11:47:57.686Z,1.10
2023-03-06T11:50:56.991Z,0.98
2023-03-06T11:53:28.848Z,0.90
2023-03-06T11:56:04.036Z,0.90
2023-03-06T11:58:40.397Z,0.98
2023-03-06T12:01:10.632Z,1.15
2023-03-06T12:03:50.261Z,1.33
2023-03-06T12:06:35.673Z,1.30
2023-03-06T12:09:04.852Z,1.10
2023-03-06T12:11:52.100Z,1.90
2023-03-06T12:14:31.153Z,3.15
2023-03-06T12:17:10.509Z,2.60
2023-03-06T12:19:50.272Z,1.40
2023-03-06T12:22:36.311Z,1.05
2023-03-06T12:25:06.564Z,1.45
2023-03-06T12:27:36.560Z,1.60
2023-03-06T12:30:44.036Z,1.35
2023-03-06T12:33:29.352Z,1.52
2023-03-06T12:36:02.912Z,1.75
2023-03-06T12:38:30.001Z,3.00
2023-03-06T12:41:15.728Z,1.85
2023-03-06T12:43:55.471Z,2.33
2023-03-06T12:46:23.718Z,2.35
2023-03-06T12:48:56.656Z,2.53
2023-03-06T12:51:23.903Z,3.92
2023-03-06T12:53:51.970Z,3.20
2023-03-06T12:56:19.475Z,3.45
2023-03-06T12:58:52.704Z,3.30
2023-03-06T13:01:20.061Z,2.97
2023-03-06T13:03:59.639Z,3.50
2023-03-06T13:06:49.761Z,3.70
2023-03-06T13:09:24.088Z,3.08
2023-03-06T13:12:03.351Z,3.42
2023-03-06T13:14:30.492Z,4.32
2023-03-06T13:17:17.624Z,4.82
2023-03-06T13:19:44.932Z,4.45
2023-03-06T13:22:16.498Z,4.55
2023-03-06T13:24:45.613Z,5.10
2023-03-06T13:27:13.345Z,5.07
2023-03-06T13:29:40.603Z,5.88
2023-03-06T13:32:16.926Z,5.40
2023-03-06T13:34:51.760Z,6.03
2023-03-06T13:37:23.489Z,5.20
2023-03-06T13:40:00.774Z,5.63
2023-03-06T13:45:17.248Z,6.00
2023-03-06T13:48:25.072Z,5.90
2023-03-06T13:50:46.465Z,5.45
2023-03-06T13:53:13.930Z,5.20
2023-03-06T13:55:59.937Z,4.75
2023-03-06T13:58:47.392Z,5.30
2023-03-06T14:01:20.925Z,4.85
2023-03-06T14:03:57.306Z,4.00
2023-03-06T14:06:54.694Z,4.70
2023-03-06T14:09:35.107Z,5.13
2023-03-06T14:12:15.590Z,4.57
2023-03-06T14:17:44.569Z,4.63
2023-03-06T14:20:16.051Z,3.72
2023-03-06T14:22:43.256Z,3.75
2023-03-06T14:25:25.795Z,4.10
2023-03-06T14:27:54.950Z,3.78
2023-03-06T14:30:26.327Z,3.88
2023-03-06T14:32:55.305Z,4.22
2023-03-06T14:37:53.432Z,4.40
2023-03-06T14:40:30.494Z,4.47
2023-03-06T14:43:10.666Z,4.10
2023-03-06T14:45:39.610Z,3.65
2023-03-06T14:50:35.320Z,3.70
2023-03-06T14:53:23.132Z,3.42
2023-03-06T14:55:53.358Z,3.53
2023-03-06T14:58:32.209Z,3.65
2023-03-06T15:01:01.946Z,3.20
2023-03-06T15:03:34.911Z,2.88
2023-03-06T15:06:02.536Z,2.25
2023-03-06T15:08:32.853Z,2.35
2023-03-06T15:11:01.407Z,2.40
2023-03-06T15:16:20.513Z,2.38
2023-03-06T15:19:01.296Z,2.70
2023-03-06T15:21:30.177Z,2.90
2023-03-06T15:26:29.649Z,3.00
2023-03-06T15:29:10.198Z,3.35
2023-03-06T15:31:42.130Z,3.22
2023-03-06T15:34:09.285Z,2.70
2023-03-06T15:36:47.390Z,3.65
2023-03-06T15:39:26.574Z,3.08
2023-03-06T15:42:00.906Z,3.63
2023-03-06T15:44:29.750Z,4.13
2023-03-06T15:47:07.778Z,4.40
2023-03-06T15:49:37.105Z,4.60
2023-03-06T15:52:04.555Z,5.30
2023-03-06T15:54:33.009Z,5.25
2023-03-06T15:57:00.549Z,5.93
2023-03-06T15:59:33.246Z,6.45
2023-03-06T16:02:10.624Z,6.93
2023-03-06T16:04:37.840Z,6.43
2023-03-06T16:07:04.944Z,7.13
2023-03-06T16:09:32.919Z,7.55
2023-03-06T16:12:00.152Z,8.40
2023-03-06T16:14:27.366Z,7.53
2023-03-06T16:16:54.842Z,7.97
2023-03-06T16:19:26.459Z,7.95
2023-03-06T16:21:55.001Z,8.10
2023-03-06T16:24:22.158Z,8.02
2023-03-06T16:26:50.870Z,9.98
2023-03-06T16:29:19.087Z,7.63
2023-03-06T16:31:46.398Z,8.30
2023-03-06T16:34:14.212Z,7.70
2023-03-06T16:36:41.582Z,9.30
2023-03-06T16:39:13.726Z,8.57
2023-03-06T16:41:40.843Z,8.80
2023-03-06T16:44:10.044Z,8.45
2023-03-06T16:46:40.190Z,8.90
2023-03-06T16:49:07.701Z,9.02
2023-03-06T16:51:37.195Z,8.65
2023-03-06T16:54:04.602Z,9.20
2023-03-06T16:56:31.737Z,8.13
2023-03-06T16:58:59.025Z,8.38
2023-03-06T17:01:26.249Z,8.40
2023-03-06T17:03:55.581Z,9.20
2023-03-06T17:06:23.431Z,7.20
2023-03-06T17:08:51.569Z,8.23
2023-03-06T17:11:20.437Z,8.50
2023-03-06T17:13:48.330Z,8.73
2023-03-06T17:16:16.501Z,9.60
2023-03-06T17:18:44.477Z,8.88
2023-03-06T17:21:11.713Z,8.35
2023-03-06T17:23:39.011Z,9.45
2023-03-06T17:26:10.741Z,7.57
2023-03-06T17:28:38.568Z,7.72
2023-03-06T17:31:16.183Z,7.10
2023-03-06T17:33:43.811Z,8.55
2023-03-06T17:36:11.383Z,6.95
2023-03-06T17:38:38.531Z,7.80
2023-03-06T17:41:06.389Z,7.38
2023-03-06T17:43:34.295Z,8.30
2023-03-06T17:46:09.926Z,8.55
2023-03-06T17:48:37.717Z,8.57
2023-03-06T17:51:05.451Z,8.45
2023-03-06T17:53:32.924Z,8.57
2023-03-06T17:56:00.357Z,9.15
2023-03-06T17:58:27.950Z,8.07
2023-03-06T18:00:55.152Z,8.52
2023-03-06T18:03:22.491Z,8.60
2023-03-06T18:05:58.791Z,8.43
2023-03-06T18:08:26.113Z,9.00
2023-03-06T18:10:53.372Z,8.65
2023-03-06T18:13:20.467Z,7.32
2023-03-06T18:15:47.676Z,9.25
2023-03-06T18:18:14.779Z,9.07
2023-03-06T18:20:42.050Z,9.13
2023-03-06T18:23:09.390Z,8.52
2023-03-06T18:25:36.695Z,10.15
2023-03-06T18:28:03.968Z,9.68
2023-03-06T18:30:31.223Z,9.20
2023-03-06T18:32:59.334Z,9.73
2023-03-06T18:35:26.595Z,8.88
2023-03-06T18:37:53.813Z,7.97
2023-03-06T18:40:21.290Z,9.38
2023-03-06T18:42:49.761Z,9.25
2023-03-06T18:45:16.986Z,9.43
2023-03-06T18:47:44.102Z,9.90
2023-03-06T18:50:16.569Z,8.82
2023-03-06T18:52:44.579Z,9.73
2023-03-06T18:55:12.227Z,9.75
2023-03-06T18:57:40.098Z,10.27
2023-03-06T19:00:07.612Z,9.75
2023-03-06T19:02:35.108Z,8.65
2023-03-06T19:05:02.497Z,8.35
2023-03-06T19:07:29.731Z,9.82
2023-03-06T19:09:57.070Z,9.57
2023-03-06T19:12:24.304Z,9.93
2023-03-06T19:14:51.806Z,8.23
2023-03-06T19:17:19.011Z,10.93
2023-03-06T19:19:46.601Z,10.38
2023-03-06T19:22:13.808Z,11.23
2023-03-06T19:24:41.741Z,11.00
2023-03-06T19:27:09.143Z,11.05
2023-03-06T19:29:37.503Z,10.63
2023-03-06T19:32:04.827Z,10.93
2023-03-06T19:34:32.288Z,10.07
2023-03-06T19:36:59.487Z,11.43
2023-03-06T19:39:26.845Z,10.95
2023-03-06T19:41:54.160Z,10.48
2023-03-06T19:44:23.116Z,10.77
2023-03-06T19:46:50.621Z,10.95
2023-03-06T19:49:21.679Z,10.43
2023-03-06T19:51:49.199Z,11.23
2023-03-06T19:54:16.620Z,11.32
2023-03-06T19:56:44.103Z,11.68
2023-03-06T19:59:11.480Z,11.73
2023-03-06T20:01:38.733Z,9.80
2023-03-06T20:04:06.128Z,11.48
2023-03-06T20:06:34.293Z,10.98
2023-03-06T20:09:02.735Z,12.18
2023-03-06T20:11:30.536Z,10.30
2023-03-06T20:13:58.907Z,12.30
2023-03-06T20:16:28.140Z,10.48
2023-03-06T20:18:58.193Z,9.90
2023-03-06T20:21:26.183Z,11.77
2023-03-06T20:23:54.456Z,9.85
2023-03-06T20:26:21.813Z,11.50
2023-03-06T20:28:49.259Z,11.05
2023-03-06T20:31:18.398Z,11.27
2023-03-06T20:36:20.688Z,9.52
2023-03-06T20:38:48.407Z,10.23
2023-03-06T20:41:17.348Z,10.93
2023-03-06T20:43:44.595Z,11.82
2023-03-06T20:46:12.846Z,10.90
2023-03-06T20:48:40.387Z,11.90
2023-03-06T20:51:11.045Z,11.57
2023-03-06T20:53:38.225Z,12.68
2023-03-06T20:56:05.620Z,11.32
2023-03-06T20:58:33.094Z,11.43
2023-03-06T21:01:02.292Z,11.45
2023-03-06T21:03:29.868Z,12.43
2023-03-06T21:05:57.249Z,10.90
2023-03-06T21:11:47.411Z,11.80
2023-03-06T21:14:14.847Z,11.55
2023-03-06T21:16:42.293Z,11.73
2023-03-06T21:19:39.077Z,11.52
2023-03-06T21:22:58.769Z,10.55
2023-03-06T21:25:26.096Z,10.57
2023-03-06T21:27:53.220Z,9.77
2023-03-06T21:30:20.539Z,11.10
2023-03-06T21:32:47.988Z,11.35
2023-03-06T21:35:15.214Z,10.68
2023-03-06T21:37:42.530Z,9.98
2023-03-06T21:40:10.432Z,10.80
2023-03-06T21:42:38.080Z,9.82
2023-03-06T21:45:07.701Z,8.23
2023-03-06T21:47:38.827Z,9.23
2023-03-06T21:50:07.033Z,8.75
2023-03-06T21:52:34.266Z,9.98
2023-03-06T21:55:01.446Z,7.93
2023-03-06T21:57:28.591Z,8.40
2023-03-06T21:59:55.705Z,6.85
2023-03-06T22:02:22.974Z,6.88
2023-03-06T22:04:53.413Z,6.07
2023-03-06T22:07:20.937Z,4.43
2023-03-06T22:09:48.277Z,5.93
2023-03-06T22:12:15.424Z,5.43
2023-03-06T22:14:44.029Z,4.60
2023-03-06T22:17:11.202Z,3.78
2023-03-06T22:19:38.401Z,4.95
2023-03-06T22:22:06.010Z,3.72
2023-03-06T22:24:33.203Z,4.75
2023-03-06T22:27:00.417Z,4.63
2023-03-06T22:29:27.701Z,3.92
2023-03-06T22:31:54.842Z,4.78
2023-03-06T22:34:21.975Z,4.35
2023-03-06T22:36:49.261Z,4.07
2023-03-06T22:39:16.744Z,3.60
2023-03-06T22:41:43.946Z,2.85
2023-03-06T22:44:15.842Z,3.20
2023-03-06T22:46:43.069Z,3.03
2023-03-06T22:49:11.631Z,3.22
2023-03-06T22:51:39.032Z,3.35
2023-03-06T22:54:06.706Z,3.10
2023-03-06T22:56:34.238Z,3.42
2023-03-06T22:59:01.546Z,3.38
2023-03-06T23:01:29.906Z,4.03
2023-03-06T23:03:58.583Z,3.90
2023-03-06T23:06:27.169Z,4.00
2023-03-06T23:08:56.215Z,4.05
2023-03-06T23:11:23.744Z,3.97
2023-03-06T23:13:50.925Z,4.53
2023-03-06T23:16:18.054Z,4.30
2023-03-06T23:18:45.226Z,4.65
2023-03-06T23:21:14.025Z,5.15
2023-03-06T23:23:41.723Z,4.53
2023-03-06T23:26:09.483Z,4.75
2023-03-06T23:28:36.701Z,4.75
2023-03-06T23:31:08.087Z,4.32
2023-03-06T23:33:35.337Z,4.15
2023-03-06T23:36:03.258Z,4.10
2023-03-06T23:38:30.941Z,4.00
2023-03-06T23:41:02.179Z,3.55
2023-03-06T23:43:29.479Z,3.50
2023-03-06T23:45:57.102Z,3.80
2023-03-06T23:48:24.891Z,3.35
2023-03-06T23:50:52.042Z,3.88
2023-03-06T23:53:19.210Z,3.53
2023-03-06T23:55:47.325Z,3.90
2023-03-06T23:58:15.711Z,3.13
